.
WxDataArchive / Data Records for 2010-04-01
2010-03-31 April 2010 2010-04-02

Data Records for Thursday, 01 April 2010

Time	Temp	Chill	HIndex	Humid	Dewpt	 Wind 	HiWind	WindDir	Rain 	Barom 
-----	----	-----	------	-----	-----	------	------	-------	-----	----- 
00:00	55.7	55.7	55.7	66	44.5	0	0	---	0.00	29.875 
00:05	55.6	55.6	55.6	66	44.4	0	0	---	0.00	29.875 
00:10	55.1	55.1	55.1	67	44.3	0	1	68	0.00	29.875 
00:15	55.0	55.0	55.0	68	44.6	0	1	68	0.00	29.876 
00:20	54.8	54.8	54.8	68	44.4	0	1	68	0.00	29.876 
00:25	54.7	54.7	54.7	69	44.7	0	1	68	0.00	29.876 
00:30	54.5	54.5	54.5	69	44.5	0	0	---	0.00	29.877 
00:35	54.4	54.4	54.4	69	44.4	0	0	---	0.00	29.877 
00:40	54.1	54.1	54.1	69	44.2	0	0	---	0.00	29.877 
00:45	53.6	53.6	53.6	70	44.1	0	0	---	0.00	29.883 
00:50	53.3	53.3	53.3	71	44.1	0	0	---	0.00	29.883 
00:55	53.1	53.1	53.1	72	44.3	0	0	---	0.00	29.883 
01:00	52.6	52.6	52.6	73	44.2	0	0	---	0.00	29.886 
01:05	52.3	52.3	52.3	74	44.3	0	0	---	0.00	29.886 
01:10	52.0	52.0	52.0	75	44.3	0	0	---	0.00	29.886 
01:15	51.7	51.7	51.7	75	44.0	0	0	---	0.00	29.883 
01:20	51.6	51.6	51.6	76	44.3	0	0	---	0.00	29.883 
01:25	51.3	51.3	51.3	77	44.3	0	0	---	0.00	29.883 
01:30	51.0	51.0	51.0	77	44.0	0	0	---	0.00	29.880 
01:35	50.8	50.8	50.8	78	44.2	0	0	---	0.00	29.880 
01:40	50.5	50.5	50.5	78	43.9	0	0	---	0.00	29.880 
01:45	50.2	50.2	50.2	79	43.9	0	0	---	0.00	29.881 
01:50	50.1	50.1	50.1	80	44.2	0	0	---	0.00	29.881 
01:55	49.9	49.9	49.9	80	44.0	0	0	---	0.00	29.881 
02:00	49.8	49.8	49.8	81	44.2	0	0	---	0.00	29.879 
02:05	49.6	49.6	49.6	81	44.0	0	0	---	0.00	29.879 
02:10	49.5	49.5	49.5	81	43.9	0	0	---	0.00	29.879 
02:15	49.4	49.4	49.4	81	43.8	0	0	---	0.00	29.875 
02:20	49.4	49.4	49.4	81	43.8	0	0	---	0.00	29.875 
02:25	49.2	49.2	49.2	81	43.6	0	0	---	0.00	29.875 
02:30	49.2	49.2	49.2	82	43.9	0	0	---	0.00	29.872 
02:35	49.2	49.2	49.2	82	43.9	0	0	---	0.00	29.872 
02:40	49.1	49.1	49.1	82	43.8	0	0	---	0.00	29.872 
02:45	48.9	48.9	48.9	82	43.6	0	0	---	0.00	29.873 
02:50	48.8	48.8	48.8	83	43.9	0	0	---	0.00	29.873 
02:55	48.6	48.6	48.6	83	43.7	0	0	---	0.00	29.873 
03:00	48.6	48.6	48.6	83	43.7	0	0	---	0.00	29.871 
03:05	48.5	48.5	48.5	83	43.6	0	0	---	0.00	29.871 
03:10	48.5	48.5	48.5	83	43.6	0	0	---	0.00	29.871 
03:15	48.2	48.2	48.2	83	43.3	0	0	---	0.00	29.870 
03:20	48.0	48.0	48.0	84	43.4	0	0	---	0.00	29.870 
03:25	47.9	47.9	47.9	84	43.3	0	0	---	0.00	29.870 
03:30	47.7	47.7	47.7	84	43.1	0	0	---	0.00	29.864 
03:35	47.4	47.4	47.4	85	43.1	0	1	68	0.00	29.864 
03:40	47.3	47.3	47.3	85	43.0	0	0	---	0.00	29.864 
03:45	47.1	47.1	47.1	85	42.8	0	0	---	0.00	29.862 
03:50	47.0	47.0	47.0	85	42.7	0	0	---	0.00	29.862 
03:55	46.8	46.8	46.8	85	42.5	0	0	---	0.00	29.862 
04:00	46.5	46.5	46.5	86	42.5	0	0	---	0.00	29.859 
04:05	46.4	46.4	46.4	86	42.4	0	0	---	0.00	29.859 
04:10	46.4	46.4	46.4	87	42.7	0	0	---	0.00	29.859 
04:15	46.2	46.2	46.2	87	42.5	0	0	---	0.00	29.861 
04:20	46.2	46.2	46.2	87	42.5	0	0	---	0.00	29.861 
04:25	46.1	46.1	46.1	87	42.4	0	0	---	0.00	29.861 
04:30	46.0	46.0	46.0	87	42.4	0	0	---	0.00	29.857 
04:35	45.8	45.8	45.8	87	42.2	0	0	---	0.00	29.857 
04:40	45.7	45.7	45.7	87	42.1	0	0	---	0.00	29.857 
04:45	45.7	45.7	45.7	88	42.4	0	0	---	0.00	29.861 
04:50	45.4	45.4	45.4	88	42.1	0	0	---	0.00	29.861 
04:55	45.2	45.2	45.2	88	41.9	0	0	---	0.00	29.861 
05:00	44.9	44.9	44.9	88	41.6	0	0	---	0.00	29.854 
05:05	44.8	44.8	44.8	88	41.5	0	0	---	0.00	29.854 
05:10	44.8	44.8	44.8	89	41.8	0	0	---	0.00	29.854 
05:15	44.6	44.6	44.6	88	41.3	0	0	---	0.00	29.852 
05:20	44.6	44.6	44.6	89	41.6	0	0	---	0.00	29.852 
05:25	44.6	44.6	44.6	89	41.6	0	0	---	0.00	29.852 
05:30	44.6	44.6	44.6	89	41.6	0	0	---	0.00	29.855 
05:35	44.6	44.6	44.6	90	41.9	0	0	---	0.00	29.855 
05:40	44.6	44.6	44.6	90	41.9	0	0	---	0.00	29.855 
05:45	44.6	44.6	44.6	89	41.6	0	0	---	0.00	29.860 
05:50	44.5	44.5	44.5	90	41.8	0	0	---	0.00	29.860 
05:55	44.5	44.5	44.5	90	41.8	0	0	---	0.00	29.860 
06:00	44.3	44.3	44.3	90	41.6	0	0	---	0.00	29.862 
06:05	44.3	44.3	44.3	90	41.6	0	0	---	0.00	29.862 
06:10	44.3	44.3	44.3	90	41.6	0	0	---	0.00	29.862 
06:15	44.3	44.3	44.3	90	41.6	0	0	---	0.00	29.867 
06:20	44.2	44.2	44.2	90	41.5	0	0	---	0.00	29.867 
06:25	44.1	44.1	44.1	91	41.6	0	0	---	0.00	29.867 
06:30	44.1	44.1	44.1	91	41.6	0	0	---	0.00	29.868 
06:35	43.9	43.9	43.9	91	41.4	0	0	---	0.00	29.868 
06:40	43.9	43.9	43.9	91	41.4	0	0	---	0.00	29.868 
06:45	43.9	43.9	43.9	91	41.4	0	0	---	0.00	29.868 
06:50	43.9	43.9	43.9	91	41.4	0	0	---	0.00	29.868 
06:55	44.1	44.1	44.1	91	41.6	0	0	---	0.00	29.868 
07:00	44.2	44.2	44.2	91	41.7	0	0	---	0.00	29.867 
07:05	44.5	44.5	44.5	91	42.0	0	0	---	0.00	29.867 
07:10	44.8	44.8	44.8	91	42.3	0	0	---	0.00	29.867 
07:15	45.1	45.1	45.1	91	42.6	0	0	---	0.00	29.870 
07:20	45.2	45.2	45.2	90	42.4	0	0	---	0.00	29.870 
07:25	45.2	45.2	45.2	90	42.4	0	0	---	0.00	29.870 
07:30	45.2	45.2	45.2	90	42.4	0	0	---	0.00	29.882 
07:35	45.2	45.2	45.2	90	42.4	0	0	---	0.00	29.882 
07:40	45.4	45.4	45.4	90	42.6	0	0	---	0.00	29.882 
07:45	45.4	45.4	45.4	90	42.6	0	0	---	0.00	29.883 
07:50	45.5	45.5	45.5	90	42.7	0	1	68	0.00	29.883 
07:55	45.8	45.8	45.8	90	43.0	0	0	---	0.00	29.883 
08:00	46.1	46.1	46.1	90	43.3	0	0	---	0.00	29.883 
08:05	46.7	46.7	46.7	89	43.6	0	0	---	0.00	29.883 
08:10	47.4	47.4	47.4	89	44.3	0	2	68	0.00	29.883 
08:15	48.5	48.5	48.5	86	44.5	0	1	68	0.00	29.884 
08:20	49.6	49.6	49.6	82	44.3	0	2	68	0.00	29.884 
08:25	51.0	51.0	51.0	79	44.7	0	2	90	0.00	29.884 
08:30	52.2	52.2	52.2	76	44.9	0	1	90	0.00	29.886 
08:35	53.3	53.3	53.3	75	45.6	0	2	90	0.00	29.886 
08:40	54.1	54.1	54.1	74	46.0	0	1	90	0.00	29.886 
08:45	54.7	54.7	54.7	71	45.5	0	2	90	0.00	29.892 
08:50	55.4	55.4	55.4	70	45.8	1	3	90	0.00	29.892 
08:55	56.0	56.0	56.0	68	45.6	1	2	90	0.00	29.892 
09:00	56.5	56.5	56.5	67	45.7	0	3	90	0.00	29.889 
09:05	57.0	57.0	57.0	65	45.4	1	4	90	0.00	29.889 
09:10	57.5	57.5	57.5	65	45.8	0	2	90	0.00	29.889 
09:15	58.1	58.1	58.1	64	46.0	1	4	90	0.00	29.893 
09:20	58.4	58.4	58.4	63	45.9	1	5	0	0.00	29.893 
09:25	58.9	58.9	58.9	62	45.9	1	4	90	0.00	29.893 
09:30	59.3	59.3	59.3	62	46.3	1	4	68	0.00	29.894 
09:35	59.8	59.8	59.8	62	46.8	0	2	292	0.00	29.894 
09:40	60.1	60.1	60.1	59	45.7	1	4	248	0.00	29.894 
09:45	60.5	60.5	60.5	59	46.1	1	5	270	0.00	29.894 
09:50	61.0	61.0	61.0	58	46.1	2	6	248	0.00	29.894 
09:55	61.2	61.2	61.2	56	45.4	2	6	248	0.00	29.894 
10:00	61.6	61.6	61.6	56	45.7	2	7	248	0.00	29.894 
10:05	62.4	62.4	62.4	56	46.5	1	4	292	0.00	29.894 
10:10	62.9	62.9	62.9	54	46.0	2	10	248	0.00	29.894 
10:15	62.9	62.9	62.9	54	46.0	2	5	225	0.00	29.896 
10:20	63.2	63.2	63.2	54	46.3	1	4	248	0.00	29.896 
10:25	63.9	63.9	63.9	54	46.9	1	3	248	0.00	29.896 
10:30	64.3	64.3	64.3	52	46.3	2	6	270	0.00	29.899 
10:35	64.8	64.8	64.8	52	46.8	3	7	248	0.00	29.899 
10:40	65.2	65.2	65.2	50	46.1	2	6	248	0.00	29.899 
10:45	65.6	65.6	65.6	49	45.9	3	7	248	0.00	29.905 
10:50	65.8	65.8	65.8	49	46.1	3	7	248	0.00	29.905 
10:55	66.0	66.0	66.0	49	46.3	3	7	248	0.00	29.905 
11:00	66.3	66.3	66.3	48	46.0	3	6	248	0.00	29.906 
11:05	66.6	66.6	66.6	47	45.7	3	7	248	0.00	29.906 
11:10	66.8	66.8	66.8	48	46.5	3	7	248	0.00	29.906 
11:15	67.3	67.3	67.3	47	46.4	3	7	248	0.00	29.907 
11:20	67.8	67.8	67.8	47	46.8	3	6	270	0.00	29.907 
11:25	68.1	68.1	68.1	46	46.5	3	7	248	0.00	29.907 
11:30	68.6	68.6	68.6	47	47.6	2	6	248	0.00	29.904 
11:35	68.9	68.9	68.9	45	46.7	3	7	248	0.00	29.904 
11:40	69.1	69.1	69.1	46	47.4	3	9	270	0.00	29.904 
11:45	69.4	69.4	69.4	47	48.3	2	5	248	0.00	29.897 
11:50	69.8	69.8	69.8	45	47.5	2	8	248	0.00	29.897 
11:55	70.1	70.1	70.1	45	47.8	2	5	270	0.00	29.897 
12:00	70.6	70.6	70.6	45	48.2	2	5	248	0.00	29.889 
12:05	70.9	70.9	70.9	47	49.7	2	7	270	0.00	29.889 
12:10	71.3	71.3	71.3	45	48.8	2	6	112	0.00	29.889 
12:15	71.3	71.3	71.3	43	47.6	3	6	248	0.00	29.890 
12:20	71.5	71.5	71.5	46	49.6	2	6	248	0.00	29.890 
12:25	72.1	72.1	72.1	44	49.0	2	5	90	0.00	29.890 
12:30	72.5	72.5	72.5	44	49.3	1	6	248	0.00	29.883 
12:35	72.7	72.7	72.7	42	48.3	3	5	248	0.00	29.883 
12:40	73.0	73.0	73.0	45	50.4	3	9	90	0.00	29.883 
12:45	73.0	73.0	73.0	44	49.8	2	5	270	0.00	29.878 
12:50	73.3	73.3	73.3	44	50.1	2	6	112	0.00	29.878 
12:55	73.7	73.7	73.7	43	49.8	2	7	270	0.00	29.878 
13:00	73.9	73.9	73.9	42	49.3	2	6	68	0.00	29.878 
13:05	73.9	73.9	73.9	44	50.6	2	7	248	0.00	29.878 
13:10	74.2	74.2	74.2	43	50.2	2	5	248	0.00	29.878 
13:15	74.4	74.4	74.4	41	49.1	2	6	248	0.00	29.879 
13:20	74.6	74.6	74.6	43	50.6	3	7	270	0.00	29.879 
13:25	74.7	74.7	74.7	41	49.4	3	7	68	0.00	29.879 
13:30	74.9	74.9	74.9	42	50.2	2	7	270	0.00	29.874 
13:35	75.4	75.4	77.7	44	52.0	1	5	248	0.00	29.874 
13:40	75.6	75.6	77.7	41	50.2	1	4	292	0.00	29.874 
13:45	75.8	75.8	77.7	40	49.7	2	5	45	0.00	29.866 
13:50	75.8	75.8	77.8	43	51.7	2	4	248	0.00	29.866 
13:55	76.1	76.1	77.9	40	50.0	3	6	248	0.00	29.866 
14:00	76.1	76.1	77.9	40	50.0	3	7	248	0.00	29.859 
14:05	76.5	76.5	78.0	40	50.4	2	4	270	0.00	29.859 
14:10	76.7	76.7	78.1	41	51.2	3	7	248	0.00	29.859 
14:15	76.8	76.8	78.2	42	51.9	1	7	292	0.00	29.854 
14:20	77.0	77.0	78.2	40	50.8	3	9	270	0.00	29.854 
14:25	77.0	77.0	78.2	39	50.1	2	5	270	0.00	29.854 
14:30	77.2	77.2	78.3	39	50.3	2	7	248	0.00	29.847 
14:35	77.4	77.4	78.4	40	51.2	3	7	270	0.00	29.847 
14:40	77.4	77.4	78.4	40	51.2	3	8	248	0.00	29.847 
14:45	77.6	77.6	78.5	40	51.3	3	7	90	0.00	29.842 
14:50	77.7	77.7	78.6	40	51.4	2	7	292	0.00	29.842 
14:55	77.6	77.6	78.6	41	52.0	3	12	90	0.00	29.842 
15:00	77.6	77.6	78.6	41	52.0	3	10	292	0.00	29.841 
15:05	77.7	77.7	78.6	40	51.4	2	5	270	0.00	29.841 
15:10	78.1	78.1	78.9	42	53.1	2	5	68	0.00	29.841 
15:15	77.9	77.9	78.6	39	50.9	2	7	248	0.00	29.840 
15:20	78.3	78.3	78.8	38	50.6	2	6	248	0.00	29.840 
15:25	78.3	78.3	78.8	38	50.6	3	12	248	0.00	29.840 
15:30	78.3	78.3	78.9	40	52.0	2	9	0	0.00	29.833 
15:35	78.5	78.5	78.9	38	50.8	3	7	270	0.00	29.833 
15:40	78.6	78.6	78.9	37	50.1	3	10	225	0.00	29.833 
15:45	78.6	78.6	79.0	39	51.5	2	9	248	0.00	29.826 
15:50	78.8	78.8	79.2	41	53.1	1	4	315	0.00	29.826 
15:55	78.6	78.6	79.1	41	52.9	3	9	45	0.00	29.826 
16:00	78.8	78.8	79.3	42	53.7	3	7	292	0.00	29.824 
16:05	78.8	78.8	79.0	38	51.0	2	10	248	0.00	29.824 
16:10	78.6	78.6	79.0	40	52.2	2	5	270	0.00	29.824 
16:15	78.8	78.8	79.1	39	51.7	2	6	270	0.00	29.821 
16:20	79.0	79.0	79.4	41	53.3	2	5	45	0.00	29.821 
16:25	79.2	79.2	79.3	39	52.1	2	6	270	0.00	29.821 
16:30	79.0	79.0	79.2	39	51.9	1	3	270	0.00	29.816 
16:35	78.8	78.8	79.3	42	53.7	2	5	248	0.00	29.816 
16:40	78.6	78.6	79.0	39	51.5	2	6	248	0.00	29.816 
16:45	78.8	78.8	79.2	41	53.1	2	7	248	0.00	29.815 
16:50	78.6	78.6	79.0	40	52.2	3	7	112	0.00	29.815 
16:55	78.3	78.3	78.9	40	52.0	2	10	248	0.00	29.815 
17:00	78.3	78.3	78.8	39	51.3	3	7	248	0.00	29.820 
17:05	78.5	78.5	78.9	39	51.5	2	7	225	0.00	29.820 
17:10	78.6	78.6	79.2	42	53.6	1	6	68	0.00	29.820 
17:15	78.8	78.8	79.2	40	52.4	2	9	248	0.00	29.817 
17:20	79.0	79.0	79.3	40	52.6	2	8	248	0.00	29.817 
17:25	79.0	79.0	79.4	41	53.3	2	5	248	0.00	29.817 
17:30	79.0	79.0	79.3	40	52.6	2	5	248	0.00	29.820 
17:35	78.8	78.8	79.2	40	52.4	2	10	248	0.00	29.820 
17:40	78.6	78.6	79.0	40	52.2	2	9	225	0.00	29.820 
17:45	78.6	78.6	79.2	42	53.6	1	6	270	0.00	29.814 
17:50	78.8	78.8	79.1	39	51.7	2	13	248	0.00	29.814 
17:55	79.2	79.2	79.3	38	51.4	3	11	248	0.00	29.814 
18:00	79.4	79.4	79.5	39	52.3	3	8	248	0.00	29.814 
18:05	79.6	79.6	79.5	38	51.7	2	6	225	0.00	29.814 
18:10	79.8	79.8	79.6	38	51.9	1	4	270	0.00	29.814 
18:15	79.8	79.8	79.6	37	51.2	2	10	292	0.00	29.815 
18:20	79.2	79.2	79.2	37	50.7	2	10	270	0.00	29.815 
18:25	78.6	78.6	79.0	39	51.5	1	4	248	0.00	29.815 
18:30	78.1	78.1	78.8	40	51.8	2	6	248	0.00	29.822 
18:35	77.9	77.9	78.7	40	51.6	1	6	225	0.00	29.822 
18:40	77.7	77.7	78.6	41	52.1	1	7	248	0.00	29.822 
18:45	77.7	77.7	78.7	42	52.8	1	3	248	0.00	29.825 
18:50	77.6	77.6	78.6	42	52.7	1	4	270	0.00	29.825 
18:55	77.4	77.4	78.5	42	52.5	1	4	248	0.00	29.825 
19:00	77.0	77.0	78.4	43	52.8	1	3	248	0.00	29.828 
19:05	76.7	76.7	78.2	43	52.5	0	3	248	0.00	29.828 
19:10	76.3	76.3	78.1	44	52.8	1	3	248	0.00	29.828 
19:15	75.8	75.8	77.9	45	52.9	0	1	270	0.00	29.828 
19:20	75.6	75.6	77.8	45	52.7	0	2	270	0.00	29.828 
19:25	75.4	75.4	77.7	45	52.6	1	3	270	0.00	29.828 
19:30	75.4	75.4	77.8	46	53.2	1	3	270	0.00	29.830 
19:35	75.3	75.3	77.7	46	53.1	0	3	248	0.00	29.830 
19:40	74.9	74.9	74.9	46	52.7	0	1	270	0.00	29.830 
19:45	74.6	74.6	74.6	47	53.0	0	1	270	0.00	29.832 
19:50	74.2	74.2	74.2	48	53.2	0	2	270	0.00	29.832 
19:55	73.9	73.9	73.9	48	53.0	0	1	248	0.00	29.832 
20:00	73.5	73.5	73.5	49	53.2	0	1	248	0.00	29.833 
20:05	73.2	73.2	73.2	49	52.9	0	1	248	0.00	29.833 
20:10	72.8	72.8	72.8	50	53.1	0	2	248	0.00	29.833 
20:15	72.8	72.8	72.8	50	53.1	0	1	248	0.00	29.824 
20:20	72.5	72.5	72.5	50	52.8	0	0	---	0.00	29.824 
20:25	72.3	72.3	72.3	51	53.1	0	1	248	0.00	29.824 
20:30	72.0	72.0	72.0	52	53.4	0	1	225	0.00	29.830 
20:35	71.6	71.6	71.6	53	53.5	0	2	225	0.00	29.830 
20:40	71.3	71.3	71.3	53	53.3	0	1	225	0.00	29.830 
20:45	70.9	70.9	70.9	54	53.4	0	1	225	0.00	29.832 
20:50	70.4	70.4	70.4	55	53.4	0	0	---	0.00	29.832 
20:55	70.1	70.1	70.1	56	53.7	0	0	---	0.00	29.832 
21:00	69.9	69.9	69.9	56	53.5	0	1	225	0.00	29.837 
21:05	69.6	69.6	69.6	57	53.7	0	2	225	0.00	29.837 
21:10	69.6	69.6	69.6	57	53.7	0	2	225	0.00	29.837 
21:15	69.6	69.6	69.6	57	53.7	0	1	225	0.00	29.835 
21:20	69.6	69.6	69.6	57	53.7	0	2	225	0.00	29.835 
21:25	69.6	69.6	69.6	57	53.7	0	2	225	0.00	29.835 
21:30	69.6	69.6	69.6	57	53.7	0	1	225	0.00	29.836 
21:35	69.4	69.4	69.4	57	53.5	0	2	225	0.00	29.836 
21:40	69.1	69.1	69.1	58	53.7	0	2	225	0.00	29.836 
21:45	68.9	68.9	68.9	58	53.5	0	1	225	0.00	29.837 
21:50	68.8	68.8	68.8	58	53.4	0	1	90	0.00	29.837 
21:55	68.6	68.6	68.6	58	53.2	0	1	90	0.00	29.837 
22:00	68.4	68.4	68.4	58	53.0	0	1	90	0.00	29.838 
22:05	68.3	68.3	68.3	59	53.4	0	2	90	0.00	29.838 
22:10	68.1	68.1	68.1	59	53.2	0	2	90	0.00	29.838 
22:15	68.1	68.1	68.1	58	52.8	0	2	90	0.00	29.835 
22:20	68.1	68.1	68.1	58	52.8	0	1	90	0.00	29.835 
22:25	67.9	67.9	67.9	58	52.6	0	1	90	0.00	29.835 
22:30	67.8	67.8	67.8	58	52.5	0	2	90	0.00	29.834 
22:35	67.6	67.6	67.6	59	52.8	0	1	90	0.00	29.834 
22:40	67.3	67.3	67.3	59	52.5	0	1	90	0.00	29.834 
22:45	67.1	67.1	67.1	59	52.3	0	1	90	0.00	29.837 
22:50	66.8	66.8	66.8	59	52.0	0	1	90	0.00	29.837 
22:55	66.8	66.8	66.8	59	52.0	0	1	90	0.00	29.837 
23:00	66.6	66.6	66.6	59	51.8	0	2	90	0.00	29.839 
23:05	66.6	66.6	66.6	59	51.8	0	2	90	0.00	29.839 
23:10	66.4	66.4	66.4	59	51.6	0	1	90	0.00	29.839 
23:15	66.4	66.4	66.4	59	51.6	0	1	90	0.00	29.836 
23:20	66.1	66.1	66.1	59	51.3	0	1	90	0.00	29.836 
23:25	66.0	66.0	66.0	59	51.3	0	1	90	0.00	29.836 
23:30	66.0	66.0	66.0	60	51.7	0	1	90	0.00	29.833 
23:35	65.8	65.8	65.8	59	51.1	0	1	90	0.00	29.833 
23:40	65.6	65.6	65.6	60	51.3	0	1	90	0.00	29.833 
23:45	65.5	65.5	65.5	60	51.2	0	1	90	0.00	29.833 
23:50	65.3	65.3	65.3	60	51.1	0	2	90	0.00	29.833 
23:55	65.3	65.3	65.3	60	51.1	0	2	90	0.00	29.833 

CoCoRaHS
IN-AL-39
A2 Web Hosting
Creative Commons License
GoDaddy
search engine by freefind advanced

loaded 2018-11-17 06:34:38 • last modified 2010-11-18 10:43:29
Privacy PolicyDisclaimer
• wx.awcolley.com is powered by PmWiki v.2002016 •
• all content (unless otherwise noted) © 2018 A W Colley